GOBD Airport Information

Runway Information
Airport Frequencies
Airport Navaids
Airport Weather Information & NOTAM
ADDS - METARS form results

(1314 UTC 17 September 2021)
Data provider http://aviationweather.gov/metar/data/
 
METAR text: GOBD 171300Z 15005KT 120V180 9999 BKN012 FEW025CB 30/24 Q1013 NOSIG
Conditions at: GOBD (DAKAR/DIAGNE , SN) observed 1300 UTC 17 September 2021
Temperature: 30.0°C (86°F)
Dewpoint: 24.0°C (75°F) [RH = 70%]
Pressure (altimeter): 29.91 inches Hg (1013.0 mb)
Winds: from the SSE (150 degrees) at 6 MPH (5 knots; 2.6 m/s)
Visibility: 6 or more miles (10+ km)
Ceiling: 1200 feet AGL
Clouds: broken clouds at 1200 feet AGL
few clouds at 2500 feet AGL
Weather: no significant weather observed at this time

METAR text: GOBD 171230Z 17003KT 100V240 9999 BKN012 FEW025CB 29/23 Q1013 NOSIG
Conditions at: GOBD (DAKAR/DIAGNE , SN) observed 1230 UTC 17 September 2021
Temperature: 29.0°C (84°F)
Dewpoint: 23.0°C (73°F) [RH = 70%]
Pressure (altimeter): 29.91 inches Hg (1013.0 mb)
Winds: from the S (170 degrees) at 3 MPH (3 knots; 1.5 m/s)
Visibility: 6 or more miles (10+ km)
Ceiling: 1200 feet AGL
Clouds: broken clouds at 1200 feet AGL
few clouds at 2500 feet AGL
Weather: no significant weather observed at this time

Forecast for: GOBD (DAKAR/DIAGNE , SN)
Text: TAF GOBD 171102Z 1712/1818 20010KT 9999 SCT013
Forecast period: 1200 to 1700 UTC 17 September 2021
Forecast type: FROM: standard forecast or significant change
Winds: from the SSW (200 degrees) at 12 MPH (10 knots; 5.1 m/s)
Visibility: 6 or more miles (10+ km)
Ceiling: at least 12,000 feet AGL
Clouds: scattered clouds at 1300 feet AGL
Weather: no significant weather forecast for this period
Text: BECMG 1717/1719 12020G35KT 3000 TSRA BKN013 FEW020CB
Forecast period: 1700 UTC 17 September 2021 to 0000 UTC 18 September 2021
Forecast type: BECOMING: Conditions expected to become as follows by 1900 UTC 17 September 2021
Winds: from the ESE (120 degrees) at 23 MPH (20 knots; 10.3 m/s)
gusting to 40 MPH (35 knots; 18.0 m/s)
Visibility: 1.86 miles (2.99 km)
Ceiling: 1300 feet AGL
Clouds: broken clouds at 1300 feet AGL
few clouds at 2000 feet AGL
Weather: TSRA  (rain associated with thunderstorm(s))
Text: FM180000 24010KT 7000 NSW SCT013
Forecast period: 0000 to 1800 UTC 18 September 2021
Forecast type: FROM: standard forecast or significant change
Winds: from the WSW (240 degrees) at 12 MPH (10 knots; 5.1 m/s)
Visibility: 4 miles (7 km)
Ceiling: at least 12,000 feet AGL
Clouds: scattered clouds at 1300 feet AGL
Weather: NSW  (no significant weather)